sensor_id;sensor_type;location;lat;lon;timestamp;pressure;altitude;pressure_sealevel;temperature;humidity
73748;BME280;62056;52.130;5.428;2023-09-30T00:00:09;102678.69;;;13.07;72.84
73748;BME280;62056;52.130;5.428;2023-09-30T00:02:36;102677.34;;;13.04;72.15
73748;BME280;62056;52.130;5.428;2023-09-30T00:05:03;102684.28;;;13.05;73.27
73748;BME280;62056;52.130;5.428;2023-09-30T00:07:31;102686.38;;;13.03;73.16
73748;BME280;62056;52.130;5.428;2023-09-30T00:09:58;102692.81;;;13.02;73.81
73748;BME280;62056;52.130;5.428;2023-09-30T00:12:26;102692.25;;;13.00;74.26
73748;BME280;62056;52.130;5.428;2023-09-30T00:14:53;102689.59;;;13.00;73.93
73748;BME280;62056;52.130;5.428;2023-09-30T00:17:20;102686.09;;;13.00;73.12
73748;BME280;62056;52.130;5.428;2023-09-30T00:19:46;102685.31;;;12.99;74.68
73748;BME280;62056;52.130;5.428;2023-09-30T00:22:13;102694.09;;;13.00;75.06
73748;BME280;62056;52.130;5.428;2023-09-30T00:24:40;102685.06;;;13.01;74.87
73748;BME280;62056;52.130;5.428;2023-09-30T00:27:07;102686.94;;;13.00;74.95
73748;BME280;62056;52.130;5.428;2023-09-30T00:29:34;102689.59;;;13.00;73.96
73748;BME280;62056;52.130;5.428;2023-09-30T00:32:02;102688.22;;;12.98;74.25
73748;BME280;62056;52.130;5.428;2023-09-30T00:34:28;102694.63;;;12.96;73.87
73748;BME280;62056;52.130;5.428;2023-09-30T00:36:58;102690.63;;;12.94;73.75
73748;BME280;62056;52.130;5.428;2023-09-30T00:39:24;102689.25;;;12.91;73.96
73748;BME280;62056;52.130;5.428;2023-09-30T00:41:53;102706.88;;;12.92;74.41
73748;BME280;62056;52.130;5.428;2023-09-30T00:44:20;102709.81;;;12.91;74.99
73748;BME280;62056;52.130;5.428;2023-09-30T00:46:47;102718.38;;;12.93;75.59
73748;BME280;62056;52.130;5.428;2023-09-30T00:49:14;102715.16;;;12.91;74.84
73748;BME280;62056;52.130;5.428;2023-09-30T00:51:41;102713.56;;;12.90;74.89
73748;BME280;62056;52.130;5.428;2023-09-30T00:54:08;102720.72;;;12.89;76.19
73748;BME280;62056;52.130;5.428;2023-09-30T00:56:43;102722.59;;;12.89;76.25
73748;BME280;62056;52.130;5.428;2023-09-30T00:59:10;102724.72;;;12.87;74.73
73748;BME280;62056;52.130;5.428;2023-09-30T01:01:37;102728.47;;;12.86;74.91
73748;BME280;62056;52.130;5.428;2023-09-30T01:04:04;102727.09;;;12.83;74.96
73748;BME280;62056;52.130;5.428;2023-09-30T01:06:31;102724.44;;;12.83;75.35
73748;BME280;62056;52.130;5.428;2023-09-30T01:08:58;102723.88;;;12.81;76.06
73748;BME280;62056;52.130;5.428;2023-09-30T01:11:25;102734.84;;;12.80;76.21
73748;BME280;62056;52.130;5.428;2023-09-30T01:13:52;102740.16;;;12.80;76.16
73748;BME280;62056;52.130;5.428;2023-09-30T01:16:19;102735.06;;;12.78;75.23
73748;BME280;62056;52.130;5.428;2023-09-30T01:18:45;102726.50;;;12.76;75.87
73748;BME280;62056;52.130;5.428;2023-09-30T01:21:12;102728.63;;;12.74;75.92
73748;BME280;62056;52.130;5.428;2023-09-30T01:23:39;102723.00;;;12.70;76.69
73748;BME280;62056;52.130;5.428;2023-09-30T01:26:08;102731.84;;;12.71;76.54
73748;BME280;62056;52.130;5.428;2023-09-30T01:28:36;102742.19;;;12.67;76.30
73748;BME280;62056;52.130;5.428;2023-09-30T01:31:02;102755.53;;;12.67;76.18
73748;BME280;62056;52.130;5.428;2023-09-30T01:33:29;102751.53;;;12.65;75.55
73748;BME280;62056;52.130;5.428;2023-09-30T01:35:57;102746.97;;;12.65;75.87
73748;BME280;62056;52.130;5.428;2023-09-30T01:38:23;102752.56;;;12.64;75.26
73748;BME280;62056;52.130;5.428;2023-09-30T01:40:50;102741.91;;;12.64;75.70
73748;BME280;62056;52.130;5.428;2023-09-30T01:43:17;102737.63;;;12.63;75.83
73748;BME280;62056;52.130;5.428;2023-09-30T01:45:44;102744.56;;;12.64;76.27
73748;BME280;62056;52.130;5.428;2023-09-30T01:48:11;102736.81;;;12.62;75.33
73748;BME280;62056;52.130;5.428;2023-09-30T01:50:38;102741.59;;;12.60;75.35
73748;BME280;62056;52.130;5.428;2023-09-30T01:53:08;102740.78;;;12.60;76.52
73748;BME280;62056;52.130;5.428;2023-09-30T01:55:36;102751.22;;;12.61;76.76
73748;BME280;62056;52.130;5.428;2023-09-30T01:58:03;102737.06;;;12.61;75.72
73748;BME280;62056;52.130;5.428;2023-09-30T02:00:30;102730.66;;;12.62;76.81
73748;BME280;62056;52.130;5.428;2023-09-30T02:02:57;102729.63;;;12.63;77.80
73748;BME280;62056;52.130;5.428;2023-09-30T02:05:24;102722.66;;;12.62;77.79
73748;BME280;62056;52.130;5.428;2023-09-30T02:07:51;102718.63;;;12.59;76.23
73748;BME280;62056;52.130;5.428;2023-09-30T02:10:19;102723.19;;;12.59;76.28
73748;BME280;62056;52.130;5.428;2023-09-30T02:12:46;102721.81;;;12.56;76.33
73748;BME280;62056;52.130;5.428;2023-09-30T02:15:14;102728.22;;;12.55;75.48
73748;BME280;62056;52.130;5.428;2023-09-30T02:17:40;102735.66;;;12.53;76.20
73748;BME280;62056;52.130;5.428;2023-09-30T02:20:12;102738.56;;;12.51;76.12
73748;BME280;62056;52.130;5.428;2023-09-30T02:22:43;102729.22;;;12.49;75.87
73748;BME280;62056;52.130;5.428;2023-09-30T02:25:13;102732.69;;;12.49;76.89
73748;BME280;62056;52.130;5.428;2023-09-30T02:27:41;102738.28;;;12.48;76.38
73748;BME280;62056;52.130;5.428;2023-09-30T02:30:11;102742.53;;;12.44;75.68
73748;BME280;62056;52.130;5.428;2023-09-30T02:32:42;102742.53;;;12.44;76.99
73748;BME280;62056;52.130;5.428;2023-09-30T02:35:13;102734.53;;;12.44;77.05
73748;BME280;62056;52.130;5.428;2023-09-30T02:37:42;102727.56;;;12.43;76.72
73748;BME280;62056;52.130;5.428;2023-09-30T02:40:09;102730.22;;;12.43;76.77
73748;BME280;62056;52.130;5.428;2023-09-30T02:42:37;102735.56;;;12.43;77.57
73748;BME280;62056;52.130;5.428;2023-09-30T02:45:05;102731.59;;;12.45;77.70
73748;BME280;62056;52.130;5.428;2023-09-30T02:47:32;102723.34;;;12.47;78.56
73748;BME280;62056;52.130;5.428;2023-09-30T02:49:59;102727.59;;;12.48;78.65
73748;BME280;62056;52.130;5.428;2023-09-30T02:52:26;102719.88;;;12.46;77.22
73748;BME280;62056;52.130;5.428;2023-09-30T02:54:55;102723.34;;;12.47;77.41
73748;BME280;62056;52.130;5.428;2023-09-30T02:57:21;102721.22;;;12.49;78.66
73748;BME280;62056;52.130;5.428;2023-09-30T02:59:48;102719.34;;;12.49;77.72
73748;BME280;62056;52.130;5.428;2023-09-30T03:02:15;102720.97;;;12.50;77.36
73748;BME280;62056;52.130;5.428;2023-09-30T03:04:42;102719.91;;;12.51;77.32
73748;BME280;62056;52.130;5.428;2023-09-30T03:07:09;102716.19;;;12.52;77.99
73748;BME280;62056;52.130;5.428;2023-09-30T03:09:35;102722.31;;;12.53;77.40
73748;BME280;62056;52.130;5.428;2023-09-30T03:12:03;102721.25;;;12.54;78.21
73748;BME280;62056;52.130;5.428;2023-09-30T03:14:31;102722.06;;;12.54;78.07
73748;BME280;62056;52.130;5.428;2023-09-30T03:16:58;102719.13;;;12.56;77.78
73748;BME280;62056;52.130;5.428;2023-09-30T03:19:25;102720.75;;;12.57;78.07
73748;BME280;62056;52.130;5.428;2023-09-30T03:21:53;102717.84;;;12.59;78.24
73748;BME280;62056;52.130;5.428;2023-09-30T03:24:19;102712.50;;;12.59;78.54
73748;BME280;62056;52.130;5.428;2023-09-30T03:26:47;102714.34;;;12.58;77.72
73748;BME280;62056;52.130;5.428;2023-09-30T03:29:15;102716.78;;;12.60;77.75
73748;BME280;62056;52.130;5.428;2023-09-30T03:31:41;102717.31;;;12.62;78.49
73748;BME280;62056;52.130;5.428;2023-09-30T03:34:10;102720.78;;;12.62;78.75
73748;BME280;62056;52.130;5.428;2023-09-30T03:36:38;102718.13;;;12.62;78.38
73748;BME280;62056;52.130;5.428;2023-09-30T03:39:08;102725.31;;;12.62;78.39
73748;BME280;62056;52.130;5.428;2023-09-30T03:41:35;102721.84;;;12.61;78.56
73748;BME280;62056;52.130;5.428;2023-09-30T03:44:03;102721.84;;;12.61;79.06
73748;BME280;62056;52.130;5.428;2023-09-30T03:46:30;102715.72;;;12.61;78.51
73748;BME280;62056;52.130;5.428;2023-09-30T03:48:57;102715.72;;;12.61;78.79
73748;BME280;62056;52.130;5.428;2023-09-30T03:51:24;102712.50;;;12.59;78.69
73748;BME280;62056;52.130;5.428;2023-09-30T03:53:51;102715.97;;;12.59;79.09
73748;BME280;62056;52.130;5.428;2023-09-30T03:56:18;102723.72;;;12.61;79.44
73748;BME280;62056;52.130;5.428;2023-09-30T03:58:45;102718.63;;;12.59;79.67
73748;BME280;62056;52.130;5.428;2023-09-30T04:01:13;102723.72;;;12.61;79.86
73748;BME280;62056;52.130;5.428;2023-09-30T04:03:43;102720.78;;;12.62;80.51
73748;BME280;62056;52.130;5.428;2023-09-30T04:06:11;102718.13;;;12.62;80.04
73748;BME280;62056;52.130;5.428;2023-09-30T04:08:38;102723.47;;;12.62;80.86
73748;BME280;62056;52.130;5.428;2023-09-30T04:11:05;102720.78;;;12.62;80.79
73748;BME280;62056;52.130;5.428;2023-09-30T04:13:32;102718.13;;;12.62;80.79
73748;BME280;62056;52.130;5.428;2023-09-30T04:15:59;102726.13;;;12.62;79.99
73748;BME280;62056;52.130;5.428;2023-09-30T04:18:26;102726.66;;;12.59;79.87
73748;BME280;62056;52.130;5.428;2023-09-30T04:20:53;102728.25;;;12.60;80.60
73748;BME280;62056;52.130;5.428;2023-09-30T04:23:20;102729.31;;;12.59;80.84
73748;BME280;62056;52.130;5.428;2023-09-30T04:25:48;102728.50;;;12.59;80.58
73748;BME280;62056;52.130;5.428;2023-09-30T04:28:16;102726.66;;;12.59;81.58
73748;BME280;62056;52.130;5.428;2023-09-30T04:30:47;102728.50;;;12.59;81.29
73748;BME280;62056;52.130;5.428;2023-09-30T04:33:17;102731.19;;;12.59;81.23
73748;BME280;62056;52.130;5.428;2023-09-30T04:35:44;102735.69;;;12.58;81.50
73748;BME280;62056;52.130;5.428;2023-09-30T04:38:12;102734.91;;;12.58;82.22
73748;BME280;62056;52.130;5.428;2023-09-30T04:40:40;102740.25;;;12.58;81.56
73748;BME280;62056;52.130;5.428;2023-09-30T04:43:06;102740.47;;;12.56;81.45
73748;BME280;62056;52.130;5.428;2023-09-30T04:45:33;102746.88;;;12.55;81.21
73748;BME280;62056;52.130;5.428;2023-09-30T04:48:00;102735.41;;;12.54;82.02
73748;BME280;62056;52.130;5.428;2023-09-30T04:50:28;102741.81;;;12.53;80.93
73748;BME280;62056;52.130;5.428;2023-09-30T04:52:57;102737.25;;;12.54;82.38
73748;BME280;62056;52.130;5.428;2023-09-30T04:55:26;102738.34;;;12.53;80.98
73748;BME280;62056;52.130;5.428;2023-09-30T04:57:52;102746.59;;;12.51;80.60
73748;BME280;62056;52.130;5.428;2023-09-30T05:00:20;102746.81;;;12.50;81.65
73748;BME280;62056;52.130;5.428;2023-09-30T05:02:55;102749.50;;;12.50;81.15
73748;BME280;62056;52.130;5.428;2023-09-30T05:05:22;102756.94;;;12.48;81.00
73748;BME280;62056;52.130;5.428;2023-09-30T05:07:48;102755.91;;;12.49;81.58
73748;BME280;62056;52.130;5.428;2023-09-30T05:10:15;102753.47;;;12.47;81.47
73748;BME280;62056;52.130;5.428;2023-09-30T05:12:43;102758.81;;;12.47;82.11
73748;BME280;62056;52.130;5.428;2023-09-30T05:15:15;102756.16;;;12.47;81.97
73748;BME280;62056;52.130;5.428;2023-09-30T05:17:43;102762.56;;;12.46;81.20
73748;BME280;62056;52.130;5.428;2023-09-30T05:20:14;102749.69;;;12.43;80.76
73748;BME280;62056;52.130;5.428;2023-09-30T05:22:44;102745.44;;;12.42;81.10
73748;BME280;62056;52.130;5.428;2023-09-30T05:25:16;102745.13;;;12.39;80.76
73748;BME280;62056;52.130;5.428;2023-09-30T05:27:44;102746.19;;;12.38;81.17
73748;BME280;62056;52.130;5.428;2023-09-30T05:30:12;102750.47;;;12.39;81.76
73748;BME280;62056;52.130;5.428;2023-09-30T05:32:41;102758.72;;;12.37;81.97
73748;BME280;62056;52.130;5.428;2023-09-30T05:35:08;102757.34;;;12.34;81.51
73748;BME280;62056;52.130;5.428;2023-09-30T05:37:44;102763.78;;;12.33;81.77
73748;BME280;62056;52.130;5.428;2023-09-30T05:40:12;102758.66;;;12.32;82.09
73748;BME280;62056;52.130;5.428;2023-09-30T05:42:57;102763.22;;;12.31;82.38
73748;BME280;62056;52.130;5.428;2023-09-30T05:45:27;102759.72;;;12.31;82.19
73748;BME280;62056;52.130;5.428;2023-09-30T05:47:54;102768.22;;;12.28;82.80
73748;BME280;62056;52.130;5.428;2023-09-30T05:50:23;102765.81;;;12.26;82.65
73748;BME280;62056;52.130;5.428;2023-09-30T05:52:54;102761.28;;;12.27;82.82
73748;BME280;62056;52.130;5.428;2023-09-30T05:55:23;102758.03;;;12.25;82.50
73748;BME280;62056;52.130;5.428;2023-09-30T05:57:52;102751.91;;;12.24;82.71
73748;BME280;62056;52.130;5.428;2023-09-30T06:00:20;102760.72;;;12.25;83.48
73748;BME280;62056;52.130;5.428;2023-09-30T06:02:58;102760.16;;;12.23;83.20
73748;BME280;62056;52.130;5.428;2023-09-30T06:05:25;102754.81;;;12.23;83.14
73748;BME280;62056;52.130;5.428;2023-09-30T06:07:59;102760.44;;;12.21;83.18
73748;BME280;62056;52.130;5.428;2023-09-30T06:10:26;102758.56;;;12.22;83.65
73748;BME280;62056;52.130;5.428;2023-09-30T06:12:53;102764.94;;;12.21;83.70
73748;BME280;62056;52.130;5.428;2023-09-30T06:15:23;102770.28;;;12.21;83.06
73748;BME280;62056;52.130;5.428;2023-09-30T06:17:53;102771.09;;;12.21;83.66
73748;BME280;62056;52.130;5.428;2023-09-30T06:20:20;102766.81;;;12.20;84.00
73748;BME280;62056;52.130;5.428;2023-09-30T06:22:49;102753.47;;;12.20;83.18
73748;BME280;62056;52.130;5.428;2023-09-30T06:25:17;102761.00;;;12.23;83.90
73748;BME280;62056;52.130;5.428;2023-09-30T06:27:47;102764.44;;;12.24;84.42
73748;BME280;62056;52.130;5.428;2023-09-30T06:30:16;102766.88;;;12.25;84.20
73748;BME280;62056;52.130;5.428;2023-09-30T06:32:43;102779.38;;;12.25;82.90
73748;BME280;62056;52.130;5.428;2023-09-30T06:35:10;102776.22;;;12.28;83.72
73748;BME280;62056;52.130;5.428;2023-09-30T06:37:41;102780.56;;;12.34;84.31
73748;BME280;62056;52.130;5.428;2023-09-30T06:40:09;102783.03;;;12.41;84.65
73748;BME280;62056;52.130;5.428;2023-09-30T06:42:38;102796.72;;;12.49;85.16
73748;BME280;62056;52.130;5.428;2023-09-30T06:45:07;102796.84;;;12.60;85.91
73748;BME280;62056;52.130;5.428;2023-09-30T06:47:35;102792.66;;;12.69;86.76
73748;BME280;62056;52.130;5.428;2023-09-30T06:50:04;102801.81;;;12.78;87.28
73748;BME280;62056;52.130;5.428;2023-09-30T06:52:39;102796.81;;;12.87;88.10
73748;BME280;62056;52.130;5.428;2023-09-30T06:55:06;102804.13;;;12.96;89.16
73748;BME280;62056;52.130;5.428;2023-09-30T06:57:37;102805.25;;;13.06;89.75
73748;BME280;62056;52.130;5.428;2023-09-30T07:00:09;102809.09;;;13.15;90.57
73748;BME280;62056;52.130;5.428;2023-09-30T07:02:39;102811.84;;;13.25;91.10
73748;BME280;62056;52.130;5.428;2023-09-30T07:05:08;102825.56;;;13.34;91.54
73748;BME280;62056;52.130;5.428;2023-09-30T07:07:35;102834.44;;;13.45;90.95
73748;BME280;62056;52.130;5.428;2023-09-30T07:10:03;102832.88;;;13.54;91.90
73748;BME280;62056;52.130;5.428;2023-09-30T07:12:33;102835.91;;;13.63;91.75
73748;BME280;62056;52.130;5.428;2023-09-30T07:15:03;102839.13;;;13.70;92.45
73748;BME280;62056;52.130;5.428;2023-09-30T07:17:32;102837.84;;;13.77;92.47
73748;BME280;62056;52.130;5.428;2023-09-30T07:19:59;102827.47;;;13.86;92.36
73748;BME280;62056;52.130;5.428;2023-09-30T07:22:27;102839.56;;;13.94;93.11
73748;BME280;62056;52.130;5.428;2023-09-30T07:25:14;102833.72;;;14.02;92.85
73748;BME280;62056;52.130;5.428;2023-09-30T07:27:43;102834.81;;;14.11;93.20
73748;BME280;62056;52.130;5.428;2023-09-30T07:30:12;102839.66;;;14.20;92.92
73748;BME280;62056;52.130;5.428;2023-09-30T07:32:42;102846.63;;;14.26;93.04
73748;BME280;62056;52.130;5.428;2023-09-30T07:35:10;102854.41;;;14.32;92.92
73748;BME280;62056;52.130;5.428;2023-09-30T07:37:37;102850.97;;;14.42;93.03
73748;BME280;62056;52.130;5.428;2023-09-30T07:40:04;102847.78;;;14.50;92.73
73748;BME280;62056;52.130;5.428;2023-09-30T07:42:31;102842.47;;;14.55;92.52
73748;BME280;62056;52.130;5.428;2023-09-30T07:45:00;102853.19;;;14.66;92.81
73748;BME280;62056;52.130;5.428;2023-09-30T07:47:36;102856.44;;;14.73;92.57
73748;BME280;62056;52.130;5.428;2023-09-30T07:50:03;102860.72;;;14.79;92.62
73748;BME280;62056;52.130;5.428;2023-09-30T07:52:36;102866.09;;;14.89;92.54
73748;BME280;62056;52.130;5.428;2023-09-30T07:55:04;102856.72;;;14.97;92.14
73748;BME280;62056;52.130;5.428;2023-09-30T07:57:31;102856.47;;;15.04;91.74
73748;BME280;62056;52.130;5.428;2023-09-30T08:00:00;102862.91;;;15.13;92.09
73748;BME280;62056;52.130;5.428;2023-09-30T08:02:30;102857.53;;;15.18;91.32
73748;BME280;62056;52.130;5.428;2023-09-30T08:05:00;102863.44;;;15.25;90.75
73748;BME280;62056;52.130;5.428;2023-09-30T08:07:27;102860.78;;;15.35;90.80
73748;BME280;62056;52.130;5.428;2023-09-30T08:09:53;102856.47;;;15.45;91.45
73748;BME280;62056;52.130;5.428;2023-09-30T08:12:20;102846.81;;;15.49;91.10
73748;BME280;62056;52.130;5.428;2023-09-30T08:14:47;102844.41;;;15.52;91.18
73748;BME280;62056;52.130;5.428;2023-09-30T08:17:15;102848.13;;;15.62;91.30
73748;BME280;62056;52.130;5.428;2023-09-30T08:19:42;102843.00;;;15.70;91.09
73748;BME280;62056;52.130;5.428;2023-09-30T08:22:09;102836.56;;;15.71;90.50
73748;BME280;62056;52.130;5.428;2023-09-30T08:24:35;102830.94;;;15.78;89.69
73748;BME280;62056;52.130;5.428;2023-09-30T08:27:02;102830.13;;;15.88;89.18
73748;BME280;62056;52.130;5.428;2023-09-30T08:29:29;102822.03;;;15.98;89.19
73748;BME280;62056;52.130;5.428;2023-09-30T08:31:56;102826.53;;;16.08;89.55
73748;BME280;62056;52.130;5.428;2023-09-30T08:34:23;102836.16;;;16.14;87.98
73748;BME280;62056;52.130;5.428;2023-09-30T08:36:50;102838.56;;;16.21;89.52
73748;BME280;62056;52.130;5.428;2023-09-30T08:39:17;102840.13;;;16.27;89.21
73748;BME280;62056;52.130;5.428;2023-09-30T08:41:44;102844.69;;;16.31;88.69
73748;BME280;62056;52.130;5.428;2023-09-30T08:44:11;102846.28;;;16.37;86.89
73748;BME280;62056;52.130;5.428;2023-09-30T08:46:40;102856.41;;;16.51;88.28
73748;BME280;62056;52.130;5.428;2023-09-30T08:49:07;102852.81;;;16.66;88.93
73748;BME280;62056;52.130;5.428;2023-09-30T08:51:35;102843.13;;;16.70;88.21
73748;BME280;62056;52.130;5.428;2023-09-30T08:54:02;102835.84;;;16.75;87.58
73748;BME280;62056;52.130;5.428;2023-09-30T08:56:33;102845.19;;;16.88;87.69
73748;BME280;62056;52.130;5.428;2023-09-30T08:59:09;102846.47;;;16.96;87.76
73748;BME280;62056;52.130;5.428;2023-09-30T09:01:37;102854.47;;;17.01;87.00
73748;BME280;62056;52.130;5.428;2023-09-30T09:04:06;102844.19;;;17.08;85.81
73748;BME280;62056;52.130;5.428;2023-09-30T09:06:34;102847.09;;;17.17;84.78
73748;BME280;62056;52.130;5.428;2023-09-30T09:09:18;102856.41;;;17.30;83.94
73748;BME280;62056;52.130;5.428;2023-09-30T09:11:46;102852.31;;;17.37;85.09
73748;BME280;62056;52.130;5.428;2023-09-30T09:14:13;102859.44;;;17.47;84.81
73748;BME280;62056;52.130;5.428;2023-09-30T09:16:51;102871.44;;;17.60;85.49
73748;BME280;62056;52.130;5.428;2023-09-30T09:19:19;102872.75;;;17.63;84.69
73748;BME280;62056;52.130;5.428;2023-09-30T09:21:58;102882.09;;;17.70;84.60
73748;BME280;62056;52.130;5.428;2023-09-30T09:24:29;102882.66;;;17.67;83.73
73748;BME280;62056;52.130;5.428;2023-09-30T09:27:09;102884.66;;;17.86;83.87
73748;BME280;62056;52.130;5.428;2023-09-30T09:29:37;102894.84;;;17.89;82.75
73748;BME280;62056;52.130;5.428;2023-09-30T09:32:14;102902.28;;;17.97;82.47
73748;BME280;62056;52.130;5.428;2023-09-30T09:34:42;102904.63;;;18.04;82.21
73748;BME280;62056;52.130;5.428;2023-09-30T09:39:51;102901.84;;;18.33;81.97
73748;BME280;62056;52.130;5.428;2023-09-30T09:42:39;102893.22;;;18.36;80.07
73748;BME280;62056;52.130;5.428;2023-09-30T09:45:07;102904.06;;;18.50;80.43
73748;BME280;62056;52.130;5.428;2023-09-30T09:47:35;102903.78;;;18.51;79.02
73748;BME280;62056;52.130;5.428;2023-09-30T09:50:07;102910.28;;;18.69;79.39
73748;BME280;62056;52.130;5.428;2023-09-30T09:52:34;102899.13;;;18.76;78.85
73748;BME280;62056;52.130;5.428;2023-09-30T09:55:02;102904.25;;;18.77;77.20
73748;BME280;62056;52.130;5.428;2023-09-30T09:57:30;102907.59;;;18.88;77.47
73748;BME280;62056;52.130;5.428;2023-09-30T09:59:58;102897.34;;;18.90;77.04
73748;BME280;62056;52.130;5.428;2023-09-30T10:02:26;102912.72;;;18.90;75.92
73748;BME280;62056;52.130;5.428;2023-09-30T10:04:55;102911.75;;;18.99;76.53
73748;BME280;62056;52.130;5.428;2023-09-30T10:07:29;102918.16;;;19.04;75.07
73748;BME280;62056;52.130;5.428;2023-09-30T10:10:00;102918.00;;;19.14;75.59
73748;BME280;62056;52.130;5.428;2023-09-30T10:12:36;102906.47;;;19.27;74.91
73748;BME280;62056;52.130;5.428;2023-09-30T10:20:32;102888.50;;;19.36;71.70
73748;BME280;62056;52.130;5.428;2023-09-30T10:23:19;102893.72;;;19.47;69.41
73748;BME280;62056;52.130;5.428;2023-09-30T10:28:38;102880.44;;;19.64;70.33
73748;BME280;62056;52.130;5.428;2023-09-30T10:31:18;102879.97;;;19.76;69.00
73748;BME280;62056;52.130;5.428;2023-09-30T10:36:29;102862.69;;;19.91;69.04
73748;BME280;62056;52.130;5.428;2023-09-30T10:38:56;102860.56;;;20.01;68.68
73748;BME280;62056;52.130;5.428;2023-09-30T10:44:34;102869.97;;;20.04;67.63
73748;BME280;62056;52.130;5.428;2023-09-30T10:49:48;102869.16;;;20.04;67.27
73748;BME280;62056;52.130;5.428;2023-09-30T10:52:22;102870.97;;;20.08;66.76
73748;BME280;62056;52.130;5.428;2023-09-30T10:55:02;102874.47;;;20.09;65.52
73748;BME280;62056;52.130;5.428;2023-09-30T10:57:30;102878.28;;;20.08;66.23
73748;BME280;62056;52.130;5.428;2023-09-30T11:00:09;102859.38;;;20.08;65.88
73748;BME280;62056;52.130;5.428;2023-09-30T11:02:50;102868.09;;;20.05;64.49
73748;BME280;62056;52.130;5.428;2023-09-30T11:05:19;102873.06;;;19.97;65.07
73748;BME280;62056;52.130;5.428;2023-09-30T11:08:02;102862.19;;;20.02;64.89
73748;BME280;62056;52.130;5.428;2023-09-30T11:10:32;102867.09;;;20.00;64.52
73748;BME280;62056;52.130;5.428;2023-09-30T11:13:03;102864.97;;;19.97;63.98
73748;BME280;62056;52.130;5.428;2023-09-30T11:15:32;102862.88;;;20.08;64.40
73748;BME280;62056;52.130;5.428;2023-09-30T11:18:16;102864.88;;;20.02;62.42
73748;BME280;62056;52.130;5.428;2023-09-30T11:20:45;102871.88;;;20.04;63.23
73748;BME280;62056;52.130;5.428;2023-09-30T11:23:15;102865.38;;;20.05;63.52
73748;BME280;62056;52.130;5.428;2023-09-30T11:25:42;102855.00;;;19.98;63.30
73748;BME280;62056;52.130;5.428;2023-09-30T11:28:16;102852.59;;;19.96;61.99
73748;BME280;62056;52.130;5.428;2023-09-30T11:31:00;102854.47;;;20.10;63.25
73748;BME280;62056;52.130;5.428;2023-09-30T11:33:33;102844.56;;;20.05;62.91
73748;BME280;62056;52.130;5.428;2023-09-30T11:36:18;102849.97;;;20.05;62.72
73748;BME280;62056;52.130;5.428;2023-09-30T11:38:58;102842.00;;;20.00;62.09
73748;BME280;62056;52.130;5.428;2023-09-30T11:41:42;102840.09;;;20.00;60.49
73748;BME280;62056;52.130;5.428;2023-09-30T11:44:12;102838.97;;;20.01;62.24
73748;BME280;62056;52.130;5.428;2023-09-30T11:46:50;102839.19;;;20.05;61.36
73748;BME280;62056;52.130;5.428;2023-09-30T11:49:34;102840.16;;;20.09;61.46
73748;BME280;62056;52.130;5.428;2023-09-30T11:52:08;102846.44;;;20.18;62.22
73748;BME280;62056;52.130;5.428;2023-09-30T11:54:37;102849.34;;;20.22;62.24
73748;BME280;62056;52.130;5.428;2023-09-30T11:57:13;102854.81;;;20.31;62.16
73748;BME280;62056;52.130;5.428;2023-09-30T11:59:43;102845.50;;;20.37;61.94
73748;BME280;62056;52.130;5.428;2023-09-30T12:02:11;102845.06;;;20.43;61.95
73748;BME280;62056;52.130;5.428;2023-09-30T12:04:44;102846.50;;;20.41;61.38
73748;BME280;62056;52.130;5.428;2023-09-30T12:07:12;102839.38;;;20.45;61.29
73748;BME280;62056;52.130;5.428;2023-09-30T12:09:39;102832.13;;;20.68;60.04
73748;BME280;62056;52.130;5.428;2023-09-30T12:12:09;102820.44;;;20.59;59.59
73748;BME280;62056;52.130;5.428;2023-09-30T12:14:37;102822.38;;;20.58;59.14
73748;BME280;62056;52.130;5.428;2023-09-30T12:17:04;102813.03;;;20.65;58.85
73748;BME280;62056;52.130;5.428;2023-09-30T12:19:41;102817.31;;;20.66;57.93
73748;BME280;62056;52.130;5.428;2023-09-30T12:22:09;102821.31;;;20.68;57.92
73748;BME280;62056;52.130;5.428;2023-09-30T12:24:55;102815.91;;;20.68;57.51
73748;BME280;62056;52.130;5.428;2023-09-30T12:27:21;102813.09;;;20.73;57.47
73748;BME280;62056;52.130;5.428;2023-09-30T12:29:48;102804.47;;;20.71;57.06
73748;BME280;62056;52.130;5.428;2023-09-30T12:32:15;102798.34;;;20.79;57.15
73748;BME280;62056;52.130;5.428;2023-09-30T12:34:42;102796.63;;;20.84;56.39
73748;BME280;62056;52.130;5.428;2023-09-30T12:37:10;102803.34;;;20.95;56.47
73748;BME280;62056;52.130;5.428;2023-09-30T12:43:21;102806.25;;;20.98;55.68
73748;BME280;62056;52.130;5.428;2023-09-30T12:46:09;102800.53;;;21.00;54.49
73748;BME280;62056;52.130;5.428;2023-09-30T12:48:41;102796.41;;;21.02;55.13
73748;BME280;62056;52.130;5.428;2023-09-30T12:51:08;102811.16;;;20.96;54.53
73748;BME280;62056;52.130;5.428;2023-09-30T12:53:36;102804.34;;;20.99;54.67
73748;BME280;62056;52.130;5.428;2023-09-30T12:56:12;102807.38;;;21.06;54.87
73748;BME280;62056;52.130;5.428;2023-09-30T12:58:43;102801.38;;;21.09;54.80
73748;BME280;62056;52.130;5.428;2023-09-30T13:01:38;102814.59;;;21.11;54.13
73748;BME280;62056;52.130;5.428;2023-09-30T13:04:36;102801.09;;;21.19;54.06
73748;BME280;62056;52.130;5.428;2023-09-30T13:07:13;102804.91;;;21.18;53.98
73748;BME280;62056;52.130;5.428;2023-09-30T13:22:03;102798.75;;;21.35;52.21
73748;BME280;62056;52.130;5.428;2023-09-30T13:25:08;102789.72;;;21.40;53.16
73748;BME280;62056;52.130;5.428;2023-09-30T13:27:59;102781.28;;;21.41;52.48
73748;BME280;62056;52.130;5.428;2023-09-30T13:30:42;102779.56;;;21.46;50.05
73748;BME280;62056;52.130;5.428;2023-09-30T13:37:36;102774.84;;;21.60;52.62
73748;BME280;62056;52.130;5.428;2023-09-30T13:40:09;102763.22;;;21.59;52.13
73748;BME280;62056;52.130;5.428;2023-09-30T13:42:39;102768.50;;;21.65;52.29